createdAt,value
2023-01-29T00:00:47.014Z,1.03
2023-01-29T00:04:12.244Z,1.1
2023-01-29T00:07:37.473Z,1.15
2023-01-29T00:11:02.737Z,1.16
2023-01-29T00:14:27.956Z,1.22
2023-01-29T00:17:53.231Z,1.24
2023-01-29T00:21:18.487Z,1.19
2023-01-29T00:24:43.751Z,1.08
2023-01-29T00:28:09.019Z,1.02
2023-01-29T00:31:34.359Z,0.97
2023-01-29T00:34:59.467Z,0.96
2023-01-29T00:38:24.727Z,0.99
2023-01-29T00:41:49.980Z,0.97
2023-01-29T00:45:15.238Z,0.97
2023-01-29T00:48:40.470Z,1.02
2023-01-29T00:52:05.739Z,1.1
2023-01-29T00:55:30.961Z,1.12
2023-01-29T00:58:56.220Z,1.12
2023-01-29T01:02:21.597Z,1.08
2023-01-29T01:05:46.718Z,1.05
2023-01-29T01:09:12.099Z,1.06
2023-01-29T01:12:37.366Z,1.01
2023-01-29T01:16:02.638Z,0.99
2023-01-29T01:19:27.887Z,0.97
2023-01-29T01:22:53.107Z,0.93
2023-01-29T01:26:18.343Z,0.89
2023-01-29T01:29:43.646Z,0.85
2023-01-29T01:33:08.938Z,0.87
2023-01-29T01:36:34.253Z,0.85
2023-01-29T01:39:59.462Z,0.81
2023-01-29T01:43:24.731Z,0.75
2023-01-29T01:46:49.965Z,0.76
2023-01-29T01:50:15.573Z,0.73
2023-01-29T01:53:40.500Z,0.75
2023-01-29T01:57:05.745Z,0.8
2023-01-29T02:00:30.982Z,0.81
2023-01-29T02:03:56.266Z,0.84
2023-01-29T02:07:21.566Z,0.86
2023-01-29T02:10:46.844Z,0.89
2023-01-29T02:14:12.066Z,0.91
2023-01-29T02:17:37.418Z,0.87
2023-01-29T02:21:02.587Z,0.85
2023-01-29T02:24:27.959Z,0.77
2023-01-29T02:27:53.183Z,0.67
2023-01-29T02:31:18.556Z,0.63
2023-01-29T02:34:43.663Z,0.54
2023-01-29T02:38:08.905Z,0.48
2023-01-29T02:41:34.151Z,0.45
2023-01-29T02:44:59.422Z,0.44
2023-01-29T02:48:24.665Z,0.43
2023-01-29T02:51:49.953Z,0.39
2023-01-29T02:55:15.231Z,0.36
2023-01-29T02:58:40.484Z,0.31
2023-01-29T03:02:05.751Z,0.26
2023-01-29T03:05:30.936Z,0.15
2023-01-29T03:08:56.246Z,0.03
2023-01-29T03:12:21.515Z,0
2023-01-29T03:15:46.750Z,-0.03
2023-01-29T03:19:12.292Z,-0.01
2023-01-29T03:22:37.542Z,0.02
2023-01-29T03:26:02.808Z,0.06
2023-01-29T03:29:28.024Z,0.02
2023-01-29T03:32:53.280Z,-0.02
2023-01-29T03:36:18.543Z,-0.03
2023-01-29T03:39:43.782Z,-0.05
2023-01-29T03:43:09.046Z,-0.08
2023-01-29T03:46:34.277Z,-0.1
2023-01-29T03:49:59.523Z,-0.14
2023-01-29T03:53:24.767Z,-0.23
2023-01-29T03:56:50.034Z,-0.27
2023-01-29T04:00:15.635Z,-0.3
2023-01-29T04:03:40.549Z,-0.37
2023-01-29T04:07:05.813Z,-0.39
2023-01-29T04:10:31.071Z,-0.42
2023-01-29T04:13:56.333Z,-0.49
2023-01-29T04:17:21.580Z,-0.54
2023-01-29T04:20:46.882Z,-0.61
2023-01-29T04:24:12.164Z,-0.64
2023-01-29T04:27:37.397Z,-0.69
2023-01-29T04:31:02.796Z,-0.77
2023-01-29T04:34:27.988Z,-0.83
2023-01-29T04:37:53.240Z,-0.86
2023-01-29T04:41:18.488Z,-0.92
2023-01-29T04:44:43.735Z,-0.93
2023-01-29T04:48:09.000Z,-0.98
2023-01-29T04:51:34.305Z,-1.02
2023-01-29T04:54:59.569Z,-1.04
2023-01-29T04:58:24.814Z,-1.14
2023-01-29T05:01:50.150Z,-1.2
2023-01-29T05:05:15.351Z,-1.16
2023-01-29T05:08:40.600Z,-1.16
2023-01-29T05:12:05.824Z,-1.21
2023-01-29T05:15:31.097Z,-1.24
2023-01-29T05:18:56.368Z,-1.24
2023-01-29T05:22:21.687Z,-1.24
2023-01-29T05:25:46.968Z,-1.27
2023-01-29T05:29:12.258Z,-1.29
2023-01-29T05:32:37.506Z,-1.28
2023-01-29T05:36:02.755Z,-1.25
2023-01-29T05:39:27.990Z,-1.26
2023-01-29T05:42:53.293Z,-1.3
2023-01-29T05:46:18.584Z,-1.27
2023-01-29T05:49:43.803Z,-1.29
2023-01-29T05:53:09.093Z,-1.31
2023-01-29T05:56:34.358Z,-1.3
2023-01-29T05:59:59.649Z,-1.29
2023-01-29T06:03:24.930Z,-1.28
2023-01-29T06:06:50.191Z,-1.26
2023-01-29T06:10:15.739Z,-1.23
2023-01-29T06:13:40.719Z,-1.25
2023-01-29T06:17:05.973Z,-1.25
2023-01-29T06:20:31.303Z,-1.25
2023-01-29T06:23:56.626Z,-1.22
2023-01-29T06:27:21.891Z,-1.2
2023-01-29T06:30:47.169Z,-1.17
2023-01-29T06:34:12.449Z,-1.14
2023-01-29T06:37:37.715Z,-1.15
2023-01-29T06:41:03.004Z,-1.13
2023-01-29T06:44:28.275Z,-1.14
2023-01-29T06:47:53.598Z,-1.16
2023-01-29T06:51:18.873Z,-1.15
2023-01-29T06:54:44.164Z,-1.14
2023-01-29T06:58:09.478Z,-1.12
2023-01-29T07:01:36.529Z,-1.15
2023-01-29T07:05:00.099Z,-1.14
2023-01-29T07:08:25.710Z,-1.11
2023-01-29T07:11:51.020Z,-1.07
2023-01-29T07:15:16.323Z,-1.04
2023-01-29T07:18:41.605Z,-0.98
2023-01-29T07:22:06.881Z,-0.93
2023-01-29T07:25:32.137Z,-0.88
2023-01-29T07:28:57.411Z,-0.89
2023-01-29T07:32:22.722Z,-0.91
2023-01-29T07:35:47.994Z,-0.86
2023-01-29T07:39:13.300Z,-0.79
2023-01-29T07:42:38.567Z,-0.72
2023-01-29T07:46:03.865Z,-0.76
2023-01-29T07:49:29.099Z,-0.79
2023-01-29T07:52:54.447Z,-0.83
2023-01-29T07:56:19.728Z,-0.84
2023-01-29T07:59:44.987Z,-0.78
2023-01-29T08:03:10.287Z,-0.68
2023-01-29T08:06:35.594Z,-0.62
2023-01-29T08:10:00.926Z,-0.59
2023-01-29T08:13:26.185Z,-0.54
2023-01-29T08:16:51.563Z,-0.44
2023-01-29T08:20:18.266Z,-0.33
2023-01-29T08:23:43.162Z,-0.18
2023-01-29T08:27:08.453Z,-0.07
2023-01-29T08:30:33.916Z,-0.01
2023-01-29T08:33:59.020Z,0.06
2023-01-29T08:37:24.367Z,0.11
2023-01-29T08:40:49.637Z,0.1
2023-01-29T08:44:14.949Z,0.19
2023-01-29T08:47:40.250Z,0.25
2023-01-29T08:51:05.566Z,0.34
2023-01-29T08:54:30.847Z,0.39
2023-01-29T08:57:56.125Z,0.45
2023-01-29T09:01:21.400Z,0.51
2023-01-29T09:04:46.697Z,0.67
2023-01-29T09:08:11.997Z,0.88
2023-01-29T09:11:37.267Z,1.06
2023-01-29T09:15:02.555Z,1.22
2023-01-29T09:18:27.833Z,1.35
2023-01-29T09:21:53.086Z,1.46
2023-01-29T09:25:18.739Z,1.49
2023-01-29T09:28:43.696Z,1.53
2023-01-29T09:32:08.947Z,1.59
2023-01-29T09:35:34.864Z,1.73
2023-01-29T09:39:00.111Z,1.79
2023-01-29T09:42:25.426Z,1.83
2023-01-29T09:45:50.792Z,1.85
2023-01-29T09:49:16.017Z,1.88
2023-01-29T09:52:41.295Z,1.93
2023-01-29T09:56:06.621Z,1.91
2023-01-29T09:59:31.907Z,1.89
2023-01-29T10:02:57.178Z,1.88
2023-01-29T10:06:22.491Z,1.97
2023-01-29T10:09:47.798Z,2.05
2023-01-29T10:13:13.156Z,2.18
2023-01-29T10:16:38.487Z,2.35
2023-01-29T10:20:03.794Z,2.43
2023-01-29T10:23:29.054Z,2.53
2023-01-29T10:26:54.329Z,2.64
2023-01-29T10:30:19.575Z,2.69
2023-01-29T10:34:02.996Z,2.75
2023-01-29T10:37:10.261Z,2.81
2023-01-29T10:40:35.546Z,2.91
2023-01-29T10:44:00.824Z,2.87
2023-01-29T10:47:27.232Z,2.83
2023-01-29T10:50:51.415Z,2.84
2023-01-29T10:54:16.682Z,2.89
2023-01-29T10:57:41.964Z,2.86
2023-01-29T11:01:07.223Z,2.8
2023-01-29T11:04:32.521Z,2.8
2023-01-29T11:07:57.789Z,2.83
2023-01-29T11:11:23.078Z,2.83
2023-01-29T11:14:48.408Z,2.83
2023-01-29T11:18:13.707Z,2.85
2023-01-29T11:21:39.492Z,2.87
2023-01-29T11:25:04.799Z,2.93
2023-01-29T11:28:30.170Z,3
2023-01-29T11:31:55.519Z,3.07
2023-01-29T11:35:20.781Z,3.12
2023-01-29T11:38:46.743Z,3.18
2023-01-29T11:42:13.559Z,3.3
2023-01-29T11:45:37.366Z,3.36
2023-01-29T11:49:14.222Z,3.43
2023-01-29T11:52:30.596Z,3.45
2023-01-29T11:55:55.946Z,3.4
2023-01-29T11:59:21.205Z,3.36
2023-01-29T12:02:46.502Z,3.3
2023-01-29T12:06:12.890Z,3.22
2023-01-29T12:09:39.281Z,3.14
2023-01-29T12:13:05.348Z,3.06
2023-01-29T12:16:30.682Z,2.97
2023-01-29T12:19:55.977Z,2.93
2023-01-29T12:23:22.568Z,3.01
2023-01-29T12:26:50.204Z,3.08
2023-01-29T12:30:15.701Z,3.07
2023-01-29T12:33:41.981Z,3.08
2023-01-29T12:37:15.619Z,3.15
2023-01-29T12:40:40.854Z,3.21
2023-01-29T12:44:09.684Z,3.24
2023-01-29T12:47:34.929Z,3.29
2023-01-29T12:51:00.195Z,3.29
2023-01-29T12:54:25.459Z,3.42
2023-01-29T12:57:50.732Z,3.49
2023-01-29T13:01:16.022Z,3.53
2023-01-29T13:04:41.179Z,3.48
2023-01-29T13:08:06.485Z,3.37
2023-01-29T13:11:31.751Z,3.25
2023-01-29T13:14:57.040Z,3.17
2023-01-29T13:18:22.285Z,3.12
2023-01-29T13:21:47.557Z,3.1
2023-01-29T13:25:12.806Z,3.17
2023-01-29T13:28:38.051Z,3.18
2023-01-29T13:32:03.412Z,3.09
2023-01-29T13:35:28.597Z,3.1
2023-01-29T13:38:53.865Z,3.06
2023-01-29T13:42:19.132Z,3.12
2023-01-29T13:45:44.450Z,3.17
2023-01-29T13:49:09.731Z,3.12
2023-01-29T13:52:35.040Z,3.01
2023-01-29T13:56:00.346Z,2.9
2023-01-29T13:59:25.613Z,2.89
2023-01-29T14:02:50.992Z,2.87
2023-01-29T14:06:16.208Z,2.84
2023-01-29T14:09:41.490Z,2.84
2023-01-29T14:13:06.762Z,2.85
2023-01-29T14:16:32.116Z,2.88
2023-01-29T14:19:57.407Z,2.91
2023-01-29T14:23:22.695Z,2.91
2023-01-29T14:26:48.095Z,2.83
2023-01-29T14:30:13.247Z,2.66
2023-01-29T15:04:43.465Z,-0.45
2023-01-29T15:08:08.753Z,0.5
2023-01-29T15:11:34.048Z,0.72
2023-01-29T15:14:59.356Z,0.89
2023-01-29T15:18:24.613Z,1.01
2023-01-29T15:21:49.905Z,1.06
2023-01-29T15:25:15.519Z,1.12
2023-01-29T15:28:40.434Z,1.17
2023-01-29T15:32:05.698Z,1.27
2023-01-29T15:35:30.981Z,1.33
2023-01-29T15:38:56.249Z,1.36
2023-01-29T15:42:21.552Z,1.37
2023-01-29T15:45:46.761Z,1.39
2023-01-29T15:49:12.053Z,1.44
2023-01-29T15:52:41.984Z,1.48
2023-01-29T15:59:52.112Z,1.5
2023-01-29T16:03:17.474Z,1.45
2023-01-29T16:06:42.743Z,1.4
2023-01-29T16:10:08.112Z,1.36
2023-01-29T16:13:33.395Z,1.34
2023-01-29T16:16:59.211Z,1.27
2023-01-29T16:20:24.417Z,1.13
2023-01-29T16:23:49.762Z,1.04
2023-01-29T16:27:15.116Z,0.93
2023-01-29T16:30:41.824Z,0.9
2023-01-29T16:34:07.084Z,0.91
2023-01-29T16:37:32.525Z,0.94
2023-01-29T16:40:57.720Z,0.95
2023-01-29T16:44:22.982Z,0.96
2023-01-29T16:47:48.262Z,0.99
2023-01-29T16:51:13.542Z,1.01
2023-01-29T16:54:38.809Z,1.01
2023-01-29T16:58:04.129Z,0.98
2023-01-29T17:01:29.361Z,0.96
2023-01-29T17:04:54.632Z,0.95
2023-01-29T17:08:19.916Z,0.87
2023-01-29T17:11:45.175Z,0.81
2023-01-29T17:15:10.434Z,0.83
2023-01-29T17:18:35.709Z,0.81
2023-01-29T17:22:00.972Z,0.81
2023-01-29T17:25:26.243Z,0.76
2023-01-29T17:28:51.530Z,0.73
2023-01-29T17:32:16.861Z,0.67
2023-01-29T17:35:42.136Z,0.62
2023-01-29T17:39:07.485Z,0.52
2023-01-29T17:42:32.776Z,0.48
2023-01-29T17:45:58.197Z,0.44
2023-01-29T17:49:23.641Z,0.44
2023-01-29T17:52:48.933Z,0.46
2023-01-29T17:56:14.274Z,0.48
2023-01-29T17:59:39.564Z,0.55
2023-01-29T18:03:05.028Z,0.6
2023-01-29T18:06:30.362Z,0.68
2023-01-29T18:09:55.600Z,0.67
2023-01-29T18:13:20.957Z,0.69
2023-01-29T18:16:46.314Z,0.7
2023-01-29T18:20:11.626Z,0.72
2023-01-29T18:23:36.958Z,0.71
2023-01-29T18:27:02.249Z,0.67
2023-01-29T18:30:27.610Z,0.63
2023-01-29T18:33:52.912Z,0.65
2023-01-29T18:37:18.339Z,0.72
2023-01-29T18:40:43.655Z,0.76
2023-01-29T18:44:08.954Z,0.72
2023-01-29T18:47:34.226Z,0.67
2023-01-29T18:50:59.636Z,0.62
2023-01-29T18:54:24.947Z,0.51
2023-01-29T18:58:27.606Z,0.38
2023-01-29T19:01:15.701Z,0.32
2023-01-29T19:04:40.996Z,0.27
2023-01-29T19:08:06.305Z,0.22
2023-01-29T19:11:31.608Z,0.21
2023-01-29T19:14:56.877Z,0.23
2023-01-29T19:18:22.191Z,0.22
2023-01-29T19:21:47.465Z,0.18
2023-01-29T19:25:12.854Z,0.15
2023-01-29T19:28:38.097Z,0.12
2023-01-29T19:32:03.357Z,0.12
2023-01-29T19:35:28.654Z,0.1
2023-01-29T19:38:53.922Z,0.08
2023-01-29T19:42:19.232Z,0.1
2023-01-29T19:45:49.287Z,0.12
2023-01-29T19:49:09.824Z,0.11
2023-01-29T19:52:50.066Z,0.1
2023-01-29T19:56:00.462Z,0.05
2023-01-29T19:59:25.768Z,0.04
2023-01-29T20:02:51.024Z,0.04
2023-01-29T20:06:16.389Z,0.02
2023-01-29T20:09:41.690Z,0.04
2023-01-29T20:13:06.962Z,0.06
2023-01-29T20:16:32.287Z,0.08
2023-01-29T20:19:57.544Z,0.1
2023-01-29T20:23:36.482Z,0.11
2023-01-29T20:26:48.151Z,0.09
2023-01-29T20:30:13.337Z,0.06
2023-01-29T20:33:39.586Z,0.01
2023-01-29T20:37:04.010Z,-0.01
2023-01-29T20:40:29.295Z,-0.01
2023-01-29T20:43:54.577Z,0.04
2023-01-29T20:47:19.863Z,0.09
2023-01-29T20:50:45.234Z,0.08
2023-01-29T20:54:10.593Z,0.08
2023-01-29T20:57:36.017Z,0.07
2023-01-29T21:01:01.385Z,0.1
2023-01-29T21:04:26.567Z,0.12
2023-01-29T21:07:51.843Z,0.15
2023-01-29T21:11:17.112Z,0.2
2023-01-29T21:14:42.369Z,0.24
2023-01-29T21:18:07.642Z,0.19
2023-01-29T21:21:32.914Z,0.12
2023-01-29T21:24:58.195Z,0.11
2023-01-29T21:28:23.458Z,0.18
2023-01-29T21:31:48.851Z,0.2
2023-01-29T21:35:13.992Z,0.17
2023-01-29T21:38:39.267Z,0.1
2023-01-29T21:42:04.562Z,0.02
2023-01-29T21:45:29.884Z,-0.04
2023-01-29T21:48:55.170Z,-0.14
2023-01-29T21:52:20.426Z,-0.25
2023-01-29T21:55:45.729Z,-0.29
2023-01-29T21:59:10.974Z,-0.33
2023-01-29T22:02:36.292Z,-0.26
2023-01-29T22:06:01.524Z,-0.26
2023-01-29T22:09:26.813Z,-0.29
2023-01-29T22:12:52.088Z,-0.27
2023-01-29T22:16:17.434Z,-0.25
2023-01-29T22:19:42.690Z,-0.21
2023-01-29T22:23:07.936Z,-0.11
2023-01-29T22:26:33.258Z,-0.11
2023-01-29T22:29:58.467Z,-0.13
2023-01-29T22:33:23.712Z,-0.16
2023-01-29T22:36:48.967Z,-0.18
2023-01-29T22:40:14.242Z,-0.27
2023-01-29T22:43:39.536Z,-0.27
2023-01-29T22:47:04.852Z,-0.31
2023-01-29T22:50:30.161Z,-0.34
2023-01-29T22:53:55.444Z,-0.39
2023-01-29T22:57:20.706Z,-0.41
2023-01-29T23:00:45.994Z,-0.37
2023-01-29T23:04:11.354Z,-0.34
2023-01-29T23:07:36.596Z,-0.36
2023-01-29T23:11:01.895Z,-0.36
2023-01-29T23:14:27.168Z,-0.34
2023-01-29T23:17:52.468Z,-0.31
2023-01-29T23:21:17.759Z,-0.21
2023-01-29T23:24:43.028Z,-0.15
2023-01-29T23:28:08.341Z,-0.1
2023-01-29T23:31:33.644Z,0
2023-01-29T23:34:58.925Z,0.08
2023-01-29T23:38:24.218Z,0.08
2023-01-29T23:41:49.486Z,0.14
2023-01-29T23:45:14.765Z,0.17
2023-01-29T23:48:40.034Z,0.18
2023-01-29T23:52:05.339Z,0.17
2023-01-29T23:55:30.626Z,0.13
2023-01-29T23:58:55.919Z,0.22
